Time;durP1;ratioP1;P1;durP2;ratioP2;P2;SDS_P1;SDS_P2;PMS_P1;PMS_P2;Temp;Humidity;BMP_temperature;BMP_pressure;BME280_temperature;BME280_humidity;BME280_pressure;Samples;Min_cycle;Max_cycle;Signal;HPM_P1;HPM_P2
2022/09/10 00:00:05;;;;;;;542.10;494.40;;;;;;;22.42;73.49;99461.84;342309;28;1182;-77
2022/09/10 00:00:16;;;;;;;543.83;495.95;;;;;;;22.41;73.65;99450.34;344741;28;872;-77
2022/09/10 00:00:26;;;;;;;533.22;485.52;;;;;;;22.42;73.57;99453.84;344499;28;1221;-77
2022/09/10 00:00:37;;;;;;;522.87;475.27;;;;;;;22.40;73.32;99461.16;344066;28;1002;-77
2022/09/10 00:00:47;;;;;;;525.97;478.38;;;;;;;22.39;73.70;99459.47;344667;28;1235;-77
2022/09/10 00:00:58;;;;;;;536.03;488.38;;;;;;;22.38;73.55;99455.13;343681;28;1322;-77
2022/09/10 00:01:09;;;;;;;535.10;487.63;;;;;;;22.38;73.26;99460.44;338491;29;1065;-77
2022/09/10 00:01:21;;;;;;;539.08;491.40;;;;;;;22.37;73.25;99453.44;339447;29;1344;-77
2022/09/10 00:01:32;;;;;;;538.47;490.73;;;;;;;22.38;73.31;99457.78;338008;29;1390;-77
2022/09/10 00:01:42;;;;;;;539.50;491.63;;;;;;;22.37;73.70;99456.09;335405;29;1210;-77
2022/09/10 00:01:52;;;;;;;531.65;484.27;;;;;;;22.37;73.64;99453.44;338913;29;882;-77
2022/09/10 00:02:03;;;;;;;531.17;483.80;;;;;;;22.38;73.95;99455.97;337908;29;1426;-77
2022/09/10 00:02:13;;;;;;;532.43;485.03;;;;;;;22.37;73.58;99456.09;336664;29;909;-76
2022/09/10 00:02:24;;;;;;;537.35;489.73;;;;;;;22.37;73.89;99453.44;337661;29;929;-76
2022/09/10 00:02:35;;;;;;;528.93;481.23;;;;;;;22.36;73.35;99457.09;336993;29;1530;-77
2022/09/10 00:02:45;;;;;;;528.75;481.13;;;;;;;22.38;73.63;99449.78;339392;29;987;-77
2022/09/10 00:02:55;;;;;;;523.03;475.45;;;;;;;22.40;73.23;99455.81;337118;29;1891;-77
2022/09/10 00:03:06;;;;;;;536.23;488.47;;;;;;;22.37;73.29;99451.59;337246;29;1632;-76
2022/09/10 00:03:16;;;;;;;540.78;492.90;;;;;;;22.40;73.52;99453.16;332812;29;1215;-76
2022/09/10 00:03:27;;;;;;;545.80;497.93;;;;;;;22.40;73.61;99461.16;330310;29;1201;-76
2022/09/10 00:03:37;;;;;;;539.47;491.87;;;;;;;22.42;73.35;99456.53;329951;29;1993;-78
2022/09/10 00:03:48;;;;;;;531.97;484.45;;;;;;;22.41;73.60;99457.50;330343;29;1869;-77
2022/09/10 00:04:00;;;;;;;535.70;488.05;;;;;;;22.38;74.06;99450.63;331727;29;887;-77
2022/09/10 00:04:11;;;;;;;536.67;488.95;;;;;;;22.37;73.80;99448.09;330171;29;983;-77
2022/09/10 00:04:22;;;;;;;546.22;498.30;;;;;;;22.35;73.73;99447.41;334003;29;1005;-77
2022/09/10 00:04:32;;;;;;;547.22;499.30;;;;;;;22.36;73.56;99457.94;330862;29;1620;-76
2022/09/10 00:04:42;;;;;;;544.67;496.83;;;;;;;22.37;73.58;99453.44;326645;30;1419;-76
2022/09/10 00:04:53;;;;;;;540.13;492.53;;;;;;;22.34;73.49;99448.38;327587;30;1746;-76
2022/09/10 00:05:04;;;;;;;536.75;489.15;;;;;;;22.35;73.79;99450.91;327719;30;1488;-77
2022/09/10 00:05:14;;;;;;;536.63;489.02;;;;;;;22.35;73.97;99450.91;326827;30;952;-77
2022/09/10 00:05:24;;;;;;;540.07;492.40;;;;;;;22.34;73.80;99446.56;327780;30;1761;-77
2022/09/10 00:05:42;;;;;;;542.38;494.83;;;;;;;22.34;73.44;99448.38;323482;30;2053;-77
2022/09/10 00:05:53;;;;;;;542.42;494.95;;;;;;;22.33;73.53;99446.69;322598;30;2005;-77
2022/09/10 00:06:03;;;;;;;541.20;493.67;;;;;;;22.33;73.57;99452.03;326529;30;1219;-77
2022/09/10 00:06:14;;;;;;;537.80;490.30;;;;;;;22.30;73.37;99437.16;329149;30;1639;-76
2022/09/10 00:06:26;;;;;;;529.78;482.55;;;;;;;22.32;73.41;99439.69;321394;30;1173;-76
2022/09/10 00:06:37;;;;;;;532.65;485.15;;;;;;;22.33;73.69;99447.53;315730;30;1472;-77
2022/09/10 00:06:48;;;;;;;536.53;488.98;;;;;;;22.34;73.83;99443.03;314145;30;1962;-76
2022/09/10 00:06:59;;;;;;;552.92;504.95;;;;;;;22.35;73.42;99439.41;316849;31;1223;-76
2022/09/10 00:07:10;;;;;;;552.93;504.83;;;;;;;22.35;73.40;99444.72;318762;30;2288;-76
2022/09/10 00:07:20;;;;;;;554.08;505.80;;;;;;;22.32;73.15;99445.00;319016;30;2314;-76
2022/09/10 00:07:31;;;;;;;545.33;497.27;;;;;;;22.29;73.36;99440.81;316143;31;1392;-76
2022/09/10 00:07:41;;;;;;;547.58;499.50;;;;;;;22.28;73.61;99441.78;311981;31;1935;-77
2022/09/10 00:07:52;;;;;;;547.40;499.45;;;;;;;22.27;73.65;99444.59;310031;31;2308;-76
2022/09/10 00:08:03;;;;;;;552.73;504.63;;;;;;;22.24;73.66;99437.72;310226;31;1479;-76
2022/09/10 00:08:14;;;;;;;548.58;500.67;;;;;;;22.22;73.29;99440.53;311697;31;1235;-76
2022/09/10 00:08:25;;;;;;;544.80;496.90;;;;;;;22.22;73.86;99440.53;308352;31;1336;-76
2022/09/10 00:08:36;;;;;;;545.13;497.10;;;;;;;22.22;73.75;99434.34;309008;31;1968;-76
2022/09/10 00:08:48;;;;;;;550.03;501.88;;;;;;;22.21;73.73;99433.50;307807;31;2276;-76
2022/09/10 00:09:00;;;;;;;553.15;505.05;;;;;;;22.22;73.86;99435.19;307482;32;1338;-76
2022/09/10 00:09:10;;;;;;;547.47;499.70;;;;;;;22.23;73.86;99436.03;306200;32;3041;-76
2022/09/10 00:09:21;;;;;;;547.28;499.63;;;;;;;22.24;73.78;99435.88;304102;32;3382;-76
2022/09/10 00:09:31;;;;;;;556.10;508.23;;;;;;;22.25;73.88;99439.41;302656;32;3251;-76
2022/09/10 00:09:42;;;;;;;557.20;509.37;;;;;;;22.28;73.89;99432.94;298959;32;1444;-76
2022/09/10 00:09:52;;;;;;;556.30;508.48;;;;;;;22.29;74.06;99434.63;300035;32;2798;-76
2022/09/10 00:10:03;;;;;;;544.93;497.33;;;;;;;22.29;74.02;99434.63;296015;32;2547;-76
2022/09/10 00:10:13;;;;;;;554.90;506.98;;;;;;;22.30;73.53;99436.31;298885;33;968;-76
2022/09/10 00:10:25;;;;;;;561.77;513.37;;;;;;;22.32;73.24;99437.00;300246;32;1646;-76
2022/09/10 00:10:38;;;;;;;559.75;511.45;;;;;;;22.32;73.40;99439.69;299177;32;2596;-77
2022/09/10 00:10:50;;;;;;;546.15;498.23;;;;;;;22.33;73.40;99434.22;297647;33;2621;-77
2022/09/10 00:11:08;;;;;;;541.92;494.15;;;;;;;22.32;73.71;99432.53;295160;33;1396;-77
2022/09/10 00:11:19;;;;;;;550.13;502.35;;;;;;;22.31;73.42;99436.16;293905;33;4323;-78
2022/09/10 00:11:30;;;;;;;549.50;501.90;;;;;;;22.31;73.95;99427.31;293857;33;1595;-77
2022/09/10 00:11:41;;;;;;;549.83;501.95;;;;;;;22.31;73.37;99432.66;295525;33;4884;-77
2022/09/10 00:11:51;;;;;;;549.35;501.40;;;;;;;22.31;73.52;99438.00;295873;32;4584;-77
2022/09/10 00:12:02;;;;;;;545.20;497.30;;;;;;;22.33;73.38;99436.03;296014;33;4171;-77
2022/09/10 00:12:13;;;;;;;540.40;492.65;;;;;;;22.33;73.61;99430.69;294028;33;1203;-77
2022/09/10 00:12:24;;;;;;;541.13;493.20;;;;;;;22.34;73.70;99432.38;295033;33;3517;-77
2022/09/10 00:12:35;;;;;;;542.20;494.25;;;;;;;22.32;73.67;99439.69;295661;33;2816;-77
2022/09/10 00:12:50;;;;;;;545.72;497.90;;;;;;;22.32;73.95;99434.34;290013;34;1501;-77
2022/09/10 00:13:00;;;;;;;538.05;490.58;;;;;;;22.32;73.86;99434.34;287315;34;914;-77
2022/09/10 00:13:11;;;;;;;532.53;485.13;;;;;;;22.34;73.78;99437.72;284183;34;4221;-77
2022/09/10 00:13:21;;;;;;;532.80;485.27;;;;;;;22.34;73.95;99437.72;280794;34;5231;-77
2022/09/10 00:13:33;;;;;;;544.80;496.87;;;;;;;22.35;73.56;99440.25;278965;35;1063;-77
2022/09/10 00:13:44;;;;;;;549.15;501.20;;;;;;;22.35;73.40;99436.72;277266;35;970;-77
2022/09/10 00:13:56;;;;;;;537.63;489.95;;;;;;;22.36;73.66;99435.75;274388;35;7719;-77
2022/09/10 00:14:08;;;;;;;534.88;487.45;;;;;;;22.36;73.56;99438.41;271807;35;7259;-77
2022/09/10 00:14:20;;;;;;;535.38;488.10;;;;;;;22.36;73.09;99439.25;272568;35;6153;-77
2022/09/10 00:14:30;;;;;;;537.15;489.83;;;;;;;22.36;73.35;99441.09;271536;36;1916;-77
2022/09/10 00:14:41;;;;;;;539.05;491.33;;;;;;;22.37;73.62;99442.75;270776;36;5193;-77
2022/09/10 00:14:52;;;;;;;544.30;496.30;;;;;;;22.36;73.55;99436.59;271407;36;4475;-77
2022/09/10 00:16:39;;;;;;;502.04;455.49;;;;;;;22.38;73.10;99437.28;2492741;27;20301;-77
2022/09/10 00:16:50;;;;;;;547.63;499.70;;;;;;;22.38;73.04;99439.13;356030;27;931;-77
2022/09/10 00:17:00;;;;;;;544.33;496.42;;;;;;;22.37;73.33;99440.09;353046;28;855;-77
2022/09/10 00:17:11;;;;;;;537.50;489.73;;;;;;;22.39;73.43;99440.81;350375;28;883;-77
2022/09/10 00:17:22;;;;;;;532.15;484.48;;;;;;;22.37;73.51;99445.44;348703;28;1310;-77
2022/09/10 00:17:32;;;;;;;525.38;477.88;;;;;;;22.38;73.51;99447.97;348881;28;896;-77
2022/09/10 00:17:43;;;;;;;526.27;478.87;;;;;;;22.37;73.47;99442.75;348953;28;970;-77
2022/09/10 00:17:53;;;;;;;523.95;476.42;;;;;;;22.37;73.47;99450.78;350294;28;904;-76
2022/09/10 00:18:03;;;;;;;529.83;482.13;;;;;;;22.36;73.43;99441.94;350069;28;1431;-76
2022/09/10 00:18:15;;;;;;;526.67;478.95;;;;;;;22.37;73.40;99453.44;349327;28;2108;-76
2022/09/10 00:18:25;;;;;;;526.15;478.63;;;;;;;22.38;73.07;99449.78;350185;28;1390;-76
2022/09/10 00:18:36;;;;;;;531.40;483.63;;;;;;;22.39;73.25;99446.13;350230;28;893;-76
2022/09/10 00:18:46;;;;;;;534.10;486.55;;;;;;;22.38;73.63;99444.44;350169;28;1206;-76
2022/09/10 00:18:57;;;;;;;531.92;484.42;;;;;;;22.39;73.42;99440.81;350908;28;1611;-76
2022/09/10 00:19:08;;;;;;;532.10;484.73;;;;;;;22.40;73.36;99447.81;345826;28;1189;-76
2022/09/10 00:19:18;;;;;;;532.33;484.88;;;;;;;22.39;73.44;99451.47;346868;28;1238;-76
2022/09/10 00:19:30;;;;;;;533.20;485.67;;;;;;;22.39;73.71;99446.97;347803;28;1867;-76
2022/09/10 00:19:40;;;;;;;535.33;487.63;;;;;;;22.40;73.71;99448.66;347537;28;1374;-76
2022/09/10 00:19:50;;;;;;;532.53;484.80;;;;;;;22.41;73.30;99447.69;347416;28;920;-76
2022/09/10 00:20:02;;;;;;;536.60;488.83;;;;;;;22.39;73.55;99444.31;350014;28;1214;-76
2022/09/10 00:20:12;;;;;;;533.60;486.02;;;;;;;22.40;73.48;99448.66;347280;28;1678;-76
2022/09/10 00:20:23;;;;;;;530.97;483.43;;;;;;;22.40;73.50;99447.81;346103;28;915;-76
2022/09/10 00:20:34;;;;;;;530.83;483.20;;;;;;;22.39;73.54;99451.47;345952;28;1630;-76
2022/09/10 00:20:49;;;;;;;527.85;480.10;;;;;;;22.37;73.99;99445.44;344997;28;934;-76
2022/09/10 00:21:01;;;;;;;535.53;487.77;;;;;;;22.35;73.84;99455.41;346020;28;1022;-76
2022/09/10 00:21:14;;;;;;;540.60;492.75;;;;;;;22.34;73.85;99443.03;346232;28;902;-76
2022/09/10 00:21:25;;;;;;;539.70;491.90;;;;;;;22.32;73.89;99445.84;343255;28;1325;-76
2022/09/10 00:21:35;;;;;;;538.03;490.27;;;;;;;22.33;73.43;99446.69;344679;28;1360;-76
2022/09/10 00:21:45;;;;;;;539.33;491.52;;;;;;;22.29;73.68;99443.47;346184;28;861;-77
2022/09/10 00:21:56;;;;;;;537.33;489.40;;;;;;;22.28;73.59;99449.78;344734;28;855;-77
2022/09/10 00:22:09;;;;;;;535.70;488.00;;;;;;;22.28;73.91;99447.13;344783;28;1332;-77
2022/09/10 00:22:21;;;;;;;532.58;485.02;;;;;;;22.29;73.84;99450.63;344505;28;1042;-77
2022/09/10 00:22:32;;;;;;;526.92;479.58;;;;;;;22.27;73.71;99448.09;344342;28;1078;-77
2022/09/10 00:22:42;;;;;;;526.72;479.38;;;;;;;22.29;73.97;99442.63;346001;28;1105;-77
2022/09/10 00:22:53;;;;;;;531.17;483.60;;;;;;;22.28;73.74;99449.78;346118;28;927;-77
2022/09/10 00:23:03;;;;;;;540.58;492.90;;;;;;;22.28;73.87;99446.28;342690;28;1626;-77
2022/09/10 00:23:14;;;;;;;536.67;489.07;;;;;;;22.26;73.83;99448.25;342173;28;1180;-77
2022/09/10 00:23:26;;;;;;;537.92;490.35;;;;;;;22.25;73.76;99444.72;342870;28;1984;-76
2022/09/10 00:23:36;;;;;;;540.80;493.23;;;;;;;22.26;73.82;99445.56;343297;28;1558;-76
2022/09/10 00:23:47;;;;;;;544.33;496.73;;;;;;;22.26;73.80;99448.25;341614;28;1517;-77
2022/09/10 00:23:57;;;;;;;545.90;498.08;;;;;;;22.27;73.95;99449.94;341588;28;1373;-77
2022/09/10 00:24:08;;;;;;;553.67;505.73;;;;;;;22.28;73.85;99448.94;340658;29;1107;-77
2022/09/10 00:24:18;;;;;;;551.88;503.80;;;;;;;22.26;73.56;99445.56;341427;28;968;-77
2022/09/10 00:24:28;;;;;;;547.87;500.07;;;;;;;22.27;73.54;99447.25;341448;28;2373;-77
2022/09/10 00:24:39;;;;;;;543.70;495.83;;;;;;;22.26;73.99;99450.91;342116;28;1968;-76
2022/09/10 00:24:53;;;;;;;543.58;495.70;;;;;;;22.24;73.68;99443.03;340767;28;1596;-76
2022/09/10 00:25:04;;;;;;;542.13;494.23;;;;;;;22.24;74.21;99449.22;341219;28;1266;-76
2022/09/10 00:25:14;;;;;;;542.90;495.13;;;;;;;22.22;73.85;99451.19;341143;28;1518;-76
2022/09/10 00:25:28;;;;;;;538.88;491.23;;;;;;;22.23;74.22;99452.03;336695;29;1025;-76
2022/09/10 00:25:39;;;;;;;535.28;487.52;;;;;;;22.24;74.39;99456.38;334335;29;835;-76
2022/09/10 00:25:52;;;;;;;542.90;495.03;;;;;;;22.25;74.25;99444.72;334499;29;1209;-76
2022/09/10 00:26:20;;;;;;;553.35;505.38;;;;;;;22.24;73.93;99456.38;336081;29;1274;-76
2022/09/10 00:26:38;;;;;;;546.67;498.95;;;;;;;22.19;74.28;99462.13;331155;29;1710;-76
2022/09/10 00:26:48;;;;;;;544.83;496.65;;;;;;;22.18;74.23;99452.44;329053;29;1823;-76
2022/09/10 00:26:58;;;;;;;545.03;496.93;;;;;;;22.18;74.49;99449.78;331661;29;1916;-76
2022/09/10 00:27:09;;;;;;;541.67;493.88;;;;;;;22.18;74.28;99452.44;333280;29;1700;-76
2022/09/10 00:27:19;;;;;;;545.90;498.13;;;;;;;22.18;74.42;99454.28;329651;29;1902;-76
2022/09/10 00:27:30;;;;;;;542.25;494.63;;;;;;;22.17;74.10;99450.75;327711;30;2107;-76
2022/09/10 00:27:40;;;;;;;542.87;495.20;;;;;;;22.18;74.36;99455.13;328033;30;1005;-76
2022/09/10 00:27:50;;;;;;;541.90;494.27;;;;;;;22.17;74.26;99458.75;331106;29;1669;-76
2022/09/10 00:28:01;;;;;;;539.65;491.83;;;;;;;22.17;74.32;99458.75;331821;29;1512;-76
2022/09/10 00:28:12;;;;;;;537.20;489.50;;;;;;;22.16;74.24;99459.75;327901;30;1365;-76
2022/09/10 00:28:23;;;;;;;544.97;497.27;;;;;;;22.16;74.49;99457.06;329063;30;1240;-76
2022/09/10 00:28:34;;;;;;;552.03;504.17;;;;;;;22.15;74.50;99450.06;325587;30;1916;-76
2022/09/10 00:28:44;;;;;;;560.83;512.63;;;;;;;22.16;74.58;99462.41;326185;29;1941;-77
2022/09/10 00:28:55;;;;;;;554.50;506.30;;;;;;;22.18;74.29;99457.78;325554;30;1307;-77
2022/09/10 00:29:08;;;;;;;553.38;505.17;;;;;;;22.17;74.20;99456.09;329407;29;2530;-77
2022/09/10 00:29:18;;;;;;;549.15;501.00;;;;;;;22.16;74.23;99454.41;326853;30;2692;-77
2022/09/10 00:29:30;;;;;;;553.72;505.45;;;;;;;22.18;74.22;99459.59;327196;29;2673;-77
2022/09/10 00:29:40;;;;;;;553.47;505.40;;;;;;;22.17;74.48;99458.75;325738;30;1342;-77
2022/09/10 00:29:52;;;;;;;552.10;504.00;;;;;;;22.16;74.34;99453.56;327262;30;2801;-77
2022/09/10 00:30:02;;;;;;;552.70;504.63;;;;;;;22.16;74.70;99459.75;325951;30;1887;-77
2022/09/10 00:30:13;;;;;;;559.90;511.65;;;;;;;22.15;74.72;99455.38;326668;30;1374;-77
2022/09/10 00:30:24;;;;;;;564.50;516.13;;;;;;;22.16;74.59;99454.41;325507;30;1606;-77
2022/09/10 00:30:45;;;;;;;552.42;504.17;;;;;;;22.18;74.21;99454.28;320329;30;2066;-77
2022/09/10 00:30:56;;;;;;;544.63;496.98;;;;;;;22.19;74.53;99456.81;318544;31;931;-77
2022/09/10 00:31:06;;;;;;;547.55;499.95;;;;;;;22.19;74.47;99462.13;320979;30;2932;-77
2022/09/10 00:31:17;;;;;;;548.27;500.47;;;;;;;22.18;74.56;99455.13;317701;30;4309;-77
2022/09/10 00:31:29;;;;;;;548.35;500.35;;;;;;;22.19;74.28;99459.47;315600;30;3512;-77
2022/09/10 00:31:39;;;;;;;545.55;497.73;;;;;;;22.17;74.42;99461.44;317685;31;1415;-77
2022/09/10 00:31:50;;;;;;;547.47;499.57;;;;;;;22.17;74.58;99456.09;316280;31;3336;-77
2022/09/10 00:32:03;;;;;;;547.17;499.13;;;;;;;22.17;74.50;99457.91;316619;30;3317;-77
2022/09/10 00:32:14;;;;;;;551.17;503.02;;;;;;;22.17;74.92;99458.75;317722;30;2533;-76
2022/09/10 00:32:24;;;;;;;554.45;506.10;;;;;;;22.18;74.78;99460.44;318454;31;887;-77
2022/09/10 00:32:36;;;;;;;553.57;505.30;;;;;;;22.19;74.64;99462.13;315609;31;2333;-76
2022/09/10 00:32:51;;;;;;;543.95;495.95;;;;;;;22.20;74.32;99455.81;313696;31;2871;-76
2022/09/10 00:33:01;;;;;;;541.25;493.45;;;;;;;22.20;74.75;99458.47;311847;31;4768;-76
2022/09/10 00:33:13;;;;;;;542.30;494.48;;;;;;;22.19;74.83;99458.63;312814;31;910;-76
2022/09/10 00:33:23;;;;;;;544.00;496.15;;;;;;;22.18;75.04;99460.44;310624;31;927;-76
2022/09/10 00:33:34;;;;;;;541.70;493.90;;;;;;;22.20;74.93;99457.63;312806;31;4901;-76
2022/09/10 00:33:44;;;;;;;537.80;490.10;;;;;;;22.17;74.71;99453.44;312059;31;5025;-76
2022/09/10 00:33:55;;;;;;;547.92;499.90;;;;;;;22.19;74.73;99455.97;311789;31;961;-76
2022/09/10 00:34:06;;;;;;;551.28;503.27;;;;;;;22.19;74.89;99458.63;310591;31;4329;-76
2022/09/10 00:34:16;;;;;;;548.83;500.63;;;;;;;22.19;74.84;99462.13;310346;31;4366;-76
2022/09/10 00:34:26;;;;;;;549.95;501.83;;;;;;;22.19;74.75;99456.81;311573;31;1929;-76
2022/09/10 00:34:37;;;;;;;544.70;496.57;;;;;;;22.19;75.22;99451.47;309944;31;3137;-76
2022/09/10 00:34:47;;;;;;;543.43;495.63;;;;;;;22.20;75.22;99453.16;309420;31;3482;-76
2022/09/10 00:35:00;;;;;;;540.58;492.77;;;;;;;22.21;75.29;99454.84;305506;32;4604;-76
2022/09/10 00:35:10;;;;;;;536.58;488.83;;;;;;;22.20;74.90;99457.63;302611;32;1763;-76
2022/09/10 00:35:20;;;;;;;539.35;491.75;;;;;;;22.19;75.18;99459.47;300383;32;5564;-76
2022/09/10 00:35:32;;;;;;;540.83;493.20;;;;;;;22.19;74.81;99455.97;299957;32;5585;-76
2022/09/10 00:35:42;;;;;;;550.10;502.27;;;;;;;22.19;74.97;99456.81;298012;33;1358;-76
2022/09/10 00:35:53;;;;;;;553.95;505.88;;;;;;;22.18;75.29;99452.44;297866;33;1346;-76
2022/09/10 00:36:12;;;;;;;544.57;496.57;;;;;;;22.17;75.45;99455.25;298438;32;7252;-76
2022/09/10 00:36:27;;;;;;;544.78;496.75;;;;;;;22.16;75.33;99453.56;293371;33;1303;-76
2022/09/10 00:36:39;;;;;;;544.15;496.30;;;;;;;22.15;75.56;99449.22;285428;34;864;-76
2022/09/10 00:36:50;;;;;;;544.30;496.38;;;;;;;22.14;75.63;99448.38;285067;34;4720;-76
2022/09/10 00:37:00;;;;;;;542.77;494.77;;;;;;;22.12;75.24;99455.66;284983;34;5173;-76
2022/09/10 00:37:10;;;;;;;542.38;494.10;;;;;;;22.12;75.42;99447.69;284457;34;967;-77
2022/09/10 00:37:21;;;;;;;539.33;491.03;;;;;;;22.11;75.68;99447.81;289278;34;6524;-77
2022/09/10 00:37:31;;;;;;;548.78;500.35;;;;;;;22.11;75.60;99445.16;285179;34;7331;-77
2022/09/10 00:37:41;;;;;;;554.17;505.93;;;;;;;22.09;75.39;99450.66;283590;34;904;-77
2022/09/10 00:37:52;;;;;;;553.33;505.17;;;;;;;22.06;75.71;99445.59;281224;34;8807;-77
2022/09/10 00:38:02;;;;;;;544.75;496.85;;;;;;;22.05;75.73;99453.72;279169;35;10057;-77
2022/09/10 00:38:13;;;;;;;546.30;498.27;;;;;;;22.04;75.76;99447.56;277457;35;10141;-77
2022/09/10 00:38:24;;;;;;;550.50;502.40;;;;;;;22.04;75.67;99447.56;279609;35;1547;-77
2022/09/10 00:38:34;;;;;;;550.70;502.65;;;;;;;22.04;75.71;99447.56;276420;35;9376;-77
2022/09/10 00:38:45;;;;;;;555.35;507.30;;;;;;;22.05;75.50;99443.91;275514;35;8964;-77
2022/09/10 00:38:58;;;;;;;553.70;505.67;;;;;;;22.06;75.78;99448.25;277344;35;1278;-77
2022/09/10 00:41:26;;;;;;;506.64;458.81;;;;;;;22.06;75.49;99448.25;2502121;27;20561;-77
2022/09/10 00:41:38;;;;;;;556.25;508.45;;;;;;;22.07;75.30;99452.63;352762;28;2064;-77
2022/09/10 00:41:48;;;;;;;558.20;510.17;;;;;;;22.08;75.30;99448.13;350242;28;1313;-76
2022/09/10 00:41:58;;;;;;;555.75;507.67;;;;;;;22.07;75.40;99444.63;350194;28;1375;-75
2022/09/10 00:42:10;;;;;;;545.03;496.80;;;;;;;22.07;75.54;99446.44;350130;28;1231;-77
2022/09/10 00:42:20;;;;;;;540.40;492.27;;;;;;;22.06;75.58;99445.59;347433;28;816;-77
2022/09/10 00:42:31;;;;;;;535.00;486.97;;;;;;;22.06;75.21;99450.94;348513;28;1797;-77
2022/09/10 00:42:44;;;;;;;540.10;492.33;;;;;;;22.06;75.20;99444.75;348611;28;1279;-77
2022/09/10 00:42:55;;;;;;;541.17;493.48;;;;;;;22.05;75.57;99437.75;348740;28;1554;-77
2022/09/10 00:43:18;;;;;;;543.83;496.23;;;;;;;22.04;75.33;99447.56;347497;28;915;-77
2022/09/10 00:43:43;;;;;;;552.10;504.48;;;;;;;22.04;75.55;99447.56;350126;28;1491;-77
2022/09/10 00:44:01;;;;;;;549.90;502.00;;;;;;;22.03;75.29;99445.88;350037;28;1321;-77
2022/09/10 00:44:39;;;;;;;555.85;507.70;;;;;;;22.03;75.65;99450.38;347380;28;1230;-77
2022/09/10 00:44:55;;;;;;;537.53;490.45;;;;;;;22.02;75.56;99449.53;347339;28;1382;-77
2022/09/10 00:45:06;;;;;;;537.33;489.88;;;;;;;22.02;75.17;99448.69;347255;28;1485;-77
2022/09/10 00:45:22;;;;;;;544.10;496.40;;;;;;;22.01;75.49;99442.50;348760;28;999;-77
2022/09/10 00:45:32;;;;;;;546.70;498.80;;;;;;;22.03;75.38;99450.38;346249;28;1455;-77
2022/09/10 00:45:43;;;;;;;543.97;496.00;;;;;;;22.03;75.51;99445.03;343439;28;860;-77
2022/09/10 00:45:54;;;;;;;538.63;490.70;;;;;;;22.01;75.20;99444.28;346335;28;1153;-77
2022/09/10 00:46:04;;;;;;;540.92;493.05;;;;;;;22.00;75.42;99450.59;344809;28;916;-77
2022/09/10 00:46:24;;;;;;;550.63;502.73;;;;;;;22.00;75.45;99448.78;347357;28;1356;-77
2022/09/10 00:46:46;;;;;;;556.88;509.00;;;;;;;22.00;75.11;99445.28;347065;28;954;-77
2022/09/10 00:46:58;;;;;;;557.15;509.35;;;;;;;22.01;74.96;99450.50;346088;28;840;-77
2022/09/10 00:47:24;;;;;;;564.95;516.92;;;;;;;22.03;75.03;99451.19;347217;28;1464;-77
2022/09/10 00:47:36;;;;;;;556.30;508.85;;;;;;;22.05;75.05;99453.72;343288;28;1283;-75
2022/09/10 00:47:49;;;;;;;554.20;506.70;;;;;;;22.07;74.94;99452.63;343679;28;1509;-76
2022/09/10 00:48:05;;;;;;;562.58;514.65;;;;;;;22.10;74.96;99457.63;342075;28;1225;-76
2022/09/10 00:48:18;;;;;;;567.67;519.60;;;;;;;22.12;74.73;99458.34;341168;28;1066;-76
2022/09/10 00:48:29;;;;;;;572.33;524.17;;;;;;;22.14;74.42;99459.03;342229;28;1181;-77
2022/09/10 00:48:40;;;;;;;577.65;529.40;;;;;;;22.13;74.80;99462.69;342008;28;1388;-77
2022/09/10 00:48:51;;;;;;;568.35;520.17;;;;;;;22.15;74.62;99460.72;340560;29;1366;-77
2022/09/10 00:49:05;;;;;;;568.95;520.83;;;;;;;22.15;74.19;99460.72;338058;29;1346;-76
2022/09/10 00:49:21;;;;;;;568.58;520.45;;;;;;;22.14;74.78;99461.72;336884;29;1350;-76
2022/09/10 00:49:35;;;;;;;571.55;523.25;;;;;;;22.13;74.83;99460.03;337106;29;2040;-77
2022/09/10 00:49:51;;;;;;;581.10;532.42;;;;;;;22.13;74.76;99462.69;333659;29;1773;-77
2022/09/10 00:50:22;;;;;;;575.22;526.97;;;;;;;22.12;74.83;99466.34;335165;29;1672;-77
2022/09/10 00:50:34;;;;;;;575.95;527.72;;;;;;;22.09;75.15;99463.97;335829;29;933;-76
2022/09/10 00:50:46;;;;;;;567.72;519.53;;;;;;;22.08;75.31;99464.13;336786;29;1437;-76
2022/09/10 00:50:56;;;;;;;565.55;517.30;;;;;;;22.07;74.92;99463.28;331618;29;1430;-76
2022/09/10 00:51:08;;;;;;;574.25;525.78;;;;;;;22.07;75.11;99460.59;332430;29;982;-77
2022/09/10 00:51:19;;;;;;;577.65;529.17;;;;;;;22.06;75.18;99461.59;334012;29;1697;-75
2022/09/10 00:51:32;;;;;;;580.67;531.85;;;;;;;22.06;75.29;99463.41;332412;29;1666;-76
2022/09/10 00:51:42;;;;;;;577.97;529.33;;;;;;;22.05;75.23;99465.25;330496;29;868;-76
2022/09/10 00:51:53;;;;;;;576.47;528.28;;;;;;;22.04;75.27;99462.72;329951;29;1857;-76
2022/09/10 00:52:03;;;;;;;578.50;530.27;;;;;;;22.03;75.37;99461.03;330216;29;2126;-76
2022/09/10 00:52:14;;;;;;;577.85;529.63;;;;;;;22.02;75.33;99460.19;329128;30;1082;-77
2022/09/10 00:52:26;;;;;;;574.65;526.45;;;;;;;22.01;75.69;99461.16;328044;30;2182;-76
2022/09/10 00:52:37;;;;;;;572.40;524.22;;;;;;;22.02;75.55;99464.66;321945;30;1962;-77
2022/09/10 00:52:48;;;;;;;575.13;526.87;;;;;;;22.01;75.76;99458.50;323397;30;928;-76
2022/09/10 00:53:01;;;;;;;580.38;531.97;;;;;;;22.03;75.38;99456.53;325231;30;1298;-76
2022/09/10 00:53:14;;;;;;;583.92;535.13;;;;;;;22.02;75.19;99457.50;322988;30;1613;-76
2022/09/10 00:53:25;;;;;;;586.92;538.03;;;;;;;22.03;75.38;99461.88;319605;30;1394;-76
2022/09/10 00:53:36;;;;;;;584.50;535.60;;;;;;;22.04;75.64;99452.88;319079;30;2112;-76
2022/09/10 00:53:46;;;;;;;583.67;534.83;;;;;;;22.03;75.41;99451.19;314909;31;2328;-76
2022/09/10 00:53:57;;;;;;;582.47;533.65;;;;;;;22.05;75.00;99457.25;312955;31;799;-77
2022/09/10 00:54:07;;;;;;;578.92;530.33;;;;;;;22.05;74.75;99454.56;317156;31;2416;-76
2022/09/10 00:54:19;;;;;;;579.90;531.37;;;;;;;22.04;75.15;99458.22;318617;30;2932;-77
2022/09/10 00:54:30;;;;;;;582.13;533.40;;;;;;;22.03;75.04;99456.53;321465;30;1856;-77
2022/09/10 00:54:41;;;;;;;581.90;533.03;;;;;;;22.02;75.18;99457.50;318017;31;1544;-77
2022/09/10 00:54:51;;;;;;;579.17;530.43;;;;;;;22.02;75.38;99457.50;316914;31;2143;-77
2022/09/10 00:55:02;;;;;;;580.72;532.17;;;;;;;22.03;75.17;99459.19;316263;31;1400;-77
2022/09/10 00:55:12;;;;;;;578.30;530.00;;;;;;;22.04;74.89;99458.22;318566;31;887;-77
2022/09/10 00:55:23;;;;;;;582.90;534.25;;;;;;;22.05;74.85;99454.56;318016;31;2258;-76
2022/09/10 00:55:37;;;;;;;584.17;535.15;;;;;;;22.06;75.14;99452.75;316432;31;2732;-76
2022/09/10 00:55:49;;;;;;;587.13;537.85;;;;;;;22.06;75.13;99460.75;313281;31;2956;-76
2022/09/10 00:56:01;;;;;;;586.40;537.65;;;;;;;22.05;75.12;99457.25;309769;31;3397;-76
2022/09/10 00:56:13;;;;;;;589.55;540.85;;;;;;;22.05;74.74;99459.91;307240;32;968;-76
2022/09/10 00:56:23;;;;;;;584.50;535.80;;;;;;;22.05;74.91;99459.91;308332;31;3139;-76
2022/09/10 00:56:33;;;;;;;580.37;531.67;;;;;;;22.04;75.25;99463.56;308823;31;3730;-76
2022/09/10 00:56:44;;;;;;;582.90;534.15;;;;;;;22.03;75.18;99461.88;307347;31;1224;-76
2022/09/10 00:56:55;;;;;;;587.67;538.80;;;;;;;22.03;75.21;99455.69;307235;32;1163;-76
2022/09/10 00:57:11;;;;;;;587.50;538.53;;;;;;;22.03;75.06;99464.53;306269;32;2332;-76
2022/09/10 00:57:22;;;;;;;579.75;531.03;;;;;;;22.02;75.74;99454.84;304016;32;2323;-76
2022/09/10 00:57:32;;;;;;;584.75;536.17;;;;;;;22.00;75.58;99459.44;300409;32;2863;-76
2022/09/10 00:57:44;;;;;;;589.17;540.47;;;;;;;22.01;75.21;99462.94;300721;32;889;-76
2022/09/10 00:57:57;;;;;;;583.75;535.00;;;;;;;22.02;75.15;99460.19;298893;32;1436;-77
2022/09/10 00:58:08;;;;;;;580.90;532.28;;;;;;;22.00;75.67;99462.09;301306;32;4593;-77